Time;durP1;ratioP1;P1;durP2;ratioP2;P2;SDS_P1;SDS_P2;PMS_P1;PMS_P2;Temp;Humidity;BMP_temperature;BMP_pressure;BME280_temperature;BME280_humidity;BME280_pressure;Samples;Min_cycle;Max_cycle;Signal;HPM_P1;HPM_P2
2022/07/13 00:00:36;;;;;;;4.53;1.23;;;;;;;18.83;46.69;100611.47;5074393;28;20060;-68
2022/07/13 00:03:04;;;;;;;3.22;0.85;;;;;;;18.77;46.94;100616.56;5073791;28;20120;-68
2022/07/13 00:05:32;;;;;;;3.50;1.08;;;;;;;18.69;46.86;100619.09;5073823;28;20084;-68
2022/07/13 00:08:00;;;;;;;2.50;1.20;;;;;;;18.62;47.25;100620.56;5073557;28;20041;-68
2022/07/13 00:10:29;;;;;;;3.10;1.10;;;;;;;18.53;47.56;100615.03;5073521;28;20127;-67
2022/07/13 00:12:57;;;;;;;3.72;0.80;;;;;;;18.53;47.59;100619.56;5073312;28;20445;-68
2022/07/13 00:15:27;;;;;;;4.45;1.15;;;;;;;18.50;47.72;100619.81;5073256;28;20052;-67
2022/07/13 00:17:55;;;;;;;2.72;1.10;;;;;;;18.45;47.86;100622.06;5073424;28;20546;-68
2022/07/13 00:20:23;;;;;;;1.73;0.80;;;;;;;18.40;48.05;100624.31;5073600;28;20048;-67
2022/07/13 00:22:51;;;;;;;1.35;0.85;;;;;;;18.35;48.26;100618.47;5073553;28;20127;-68
2022/07/13 00:25:20;;;;;;;1.65;0.75;;;;;;;18.39;47.93;100614.50;5073351;28;20044;-68
2022/07/13 00:27:49;;;;;;;3.05;1.10;;;;;;;18.27;48.68;100603.78;5073550;28;20044;-68
2022/07/13 00:30:17;;;;;;;3.53;1.00;;;;;;;18.42;47.66;100604.28;5073068;28;20102;-67
2022/07/13 00:32:47;;;;;;;2.90;0.93;;;;;;;18.30;48.31;100614.31;5073282;28;20040;-68
2022/07/13 00:35:15;;;;;;;2.92;0.80;;;;;;;18.25;48.70;100605.75;5073048;28;20543;-68
2022/07/13 00:37:44;;;;;;;3.95;0.90;;;;;;;18.21;48.58;100603.44;5073388;28;20123;-68
2022/07/13 00:40:13;;;;;;;3.20;1.08;;;;;;;18.24;48.57;100609.47;5072736;28;20044;-67
2022/07/13 00:42:41;;;;;;;4.03;1.13;;;;;;;18.17;48.93;100602.88;5073318;28;20044;-68
2022/07/13 00:45:10;;;;;;;3.60;0.98;;;;;;;18.05;49.14;100601.22;5073182;28;20477;-68
2022/07/13 00:47:38;;;;;;;2.67;0.85;;;;;;;18.09;49.16;100594.56;5073423;28;20044;-68
2022/07/13 00:50:09;;;;;;;6.57;1.40;;;;;;;18.09;49.43;100599.97;5073133;28;20044;-68
2022/07/13 00:52:39;;;;;;;2.05;1.20;;;;;;;18.00;49.79;100595.34;5073477;28;20048;-67
2022/07/13 00:55:09;;;;;;;2.03;1.02;;;;;;;18.02;49.39;100596.06;5072802;28;20106;-67
2022/07/13 00:57:39;;;;;;;2.70;1.17;;;;;;;18.07;49.81;100593.00;5073024;28;20123;-67
2022/07/13 01:00:10;;;;;;;3.38;1.20;;;;;;;17.95;50.32;100586.78;5072766;28;20059;-68
2022/07/13 01:02:39;;;;;;;2.55;0.88;;;;;;;18.02;50.12;100590.69;5073004;28;20033;-68
2022/07/13 01:05:10;;;;;;;1.38;1.00;;;;;;;18.10;49.88;100582.78;5072654;28;20037;-67
2022/07/13 01:07:39;;;;;;;3.08;1.02;;;;;;;18.15;49.44;100583.25;5073228;28;20041;-67
2022/07/13 01:10:10;;;;;;;3.20;1.20;;;;;;;18.35;48.86;100583.38;5072631;28;20050;-68
2022/07/13 01:12:40;;;;;;;4.90;1.10;;;;;;;18.27;48.96;100576.78;5073101;28;20087;-67
2022/07/13 01:15:09;;;;;;;2.28;1.20;;;;;;;18.27;48.74;100578.63;5072778;28;20059;-68
2022/07/13 01:17:39;;;;;;;2.33;1.20;;;;;;;18.29;49.01;100585.59;5072786;28;20041;-67
2022/07/13 01:20:10;;;;;;;3.78;1.17;;;;;;;18.27;48.86;100579.47;5072749;28;20428;-67
2022/07/13 01:22:45;;;;;;;2.70;1.00;;;;;;;18.25;49.07;100573.38;5073121;28;20068;-67
2022/07/13 01:25:15;;;;;;;2.13;1.02;;;;;;;18.24;49.01;100570.81;5072516;28;20090;-67
2022/07/13 01:27:46;;;;;;;2.22;1.17;;;;;;;18.17;49.49;100572.31;5073806;28;20490;-68
2022/07/13 01:30:15;;;;;;;2.65;0.95;;;;;;;18.31;49.02;100570.09;5076714;28;20123;-67
2022/07/13 01:32:46;;;;;;;5.05;1.30;;;;;;;18.20;49.12;100567.50;5076941;28;20040;-67
2022/07/13 01:35:16;;;;;;;1.48;1.10;;;;;;;18.15;49.47;100563.50;5076674;28;20048;-68
2022/07/13 01:37:45;;;;;;;4.05;1.30;;;;;;;18.15;49.52;100563.50;5076680;28;20047;-67
2022/07/13 01:40:15;;;;;;;3.40;1.20;;;;;;;18.22;49.21;100560.09;5076100;28;20120;-68
2022/07/13 01:42:44;;;;;;;4.47;1.15;;;;;;;18.21;49.32;100554.84;5076843;28;20036;-67
2022/07/13 01:45:14;;;;;;;2.42;1.20;;;;;;;18.20;49.27;100556.69;5076229;28;20072;-67
2022/07/13 01:47:43;;;;;;;2.65;1.50;;;;;;;18.19;49.54;100562.22;5076431;28;20398;-67
2022/07/13 01:50:14;;;;;;;2.88;1.23;;;;;;;18.25;49.10;100567.09;5076128;28;20051;-67
2022/07/13 01:52:42;;;;;;;2.63;1.13;;;;;;;18.15;49.74;100555.41;5076626;28;20044;-67
2022/07/13 01:55:12;;;;;;;3.75;1.60;;;;;;;18.25;49.08;100557.16;5075905;28;20045;-67
2022/07/13 01:57:42;;;;;;;3.60;1.40;;;;;;;18.23;49.25;100553.72;5076321;28;20102;-67
2022/07/13 02:00:13;;;;;;;3.72;1.40;;;;;;;18.25;49.07;100556.31;5076120;28;20085;-67
2022/07/13 02:02:42;;;;;;;2.83;1.50;;;;;;;18.23;48.95;100553.72;5076315;28;20044;-67
2022/07/13 02:05:11;;;;;;;3.78;1.50;;;;;;;18.12;49.81;100556.50;5075921;28;20071;-67
2022/07/13 02:07:40;;;;;;;3.65;1.63;;;;;;;18.24;49.51;100544.66;5076224;28;20048;-67
2022/07/13 02:10:10;;;;;;;2.65;1.40;;;;;;;18.29;48.90;100547.78;5075794;28;20056;-67
2022/07/13 02:12:39;;;;;;;3.47;1.77;;;;;;;18.24;49.17;100541.09;5076028;28;20051;-67
2022/07/13 02:15:10;;;;;;;4.38;1.42;;;;;;;18.25;49.35;100546.38;5075556;28;20052;-67
2022/07/13 02:17:39;;;;;;;3.33;1.20;;;;;;;18.21;49.16;100547.59;5075850;28;20079;-67
2022/07/13 02:20:08;;;;;;;4.35;1.67;;;;;;;18.34;48.92;100550.09;5075393;28;20048;-67
2022/07/13 02:22:47;;;;;;;3.83;1.30;;;;;;;18.26;48.91;100537.25;5075849;28;20044;-67
2022/07/13 02:25:15;;;;;;;3.33;1.20;;;;;;;18.24;49.22;100541.97;5075561;28;20045;-67
2022/07/13 02:27:44;;;;;;;2.05;1.13;;;;;;;18.24;49.27;100539.25;5075647;28;20051;-67
2022/07/13 02:30:15;;;;;;;1.35;1.05;;;;;;;18.27;49.32;100541.69;5075336;28;20052;-67
2022/07/13 02:32:45;;;;;;;4.97;1.17;;;;;;;18.23;49.23;100542.91;5075926;28;20071;-67
2022/07/13 02:35:14;;;;;;;2.58;1.25;;;;;;;18.27;49.18;100544.38;5075291;28;20045;-67
2022/07/13 02:37:42;;;;;;;6.82;1.30;;;;;;;18.16;49.30;100544.47;5075625;28;20124;-67
2022/07/13 02:40:12;;;;;;;1.88;1.00;;;;;;;18.24;49.08;100539.25;5074940;28;20428;-67
2022/07/13 02:42:46;;;;;;;3.38;1.33;;;;;;;18.09;49.67;100534.31;5075457;28;20048;-68
2022/07/13 02:45:16;;;;;;;3.33;1.30;;;;;;;18.14;49.35;100537.47;5057342;28;20056;-67
2022/07/13 02:47:44;;;;;;;3.67;1.20;;;;;;;18.13;49.29;100544.72;5075254;28;20049;-67
2022/07/13 02:50:12;;;;;;;2.60;1.30;;;;;;;18.24;49.46;100544.66;5075070;28;20051;-67
2022/07/13 02:52:41;;;;;;;4.10;1.45;;;;;;;17.98;50.00;100548.75;5075151;28;20055;-67
2022/07/13 02:55:10;;;;;;;2.42;1.35;;;;;;;18.07;49.87;100542.56;5074996;28;20044;-68
2022/07/13 02:57:38;;;;;;;5.15;1.30;;;;;;;18.10;49.63;100542.28;5075168;28;20127;-67
2022/07/13 03:00:07;;;;;;;3.50;1.33;;;;;;;18.09;49.81;100540.59;5074902;28;20044;-67
2022/07/13 03:02:37;;;;;;;3.25;1.20;;;;;;;17.98;49.79;100548.75;5075069;28;20044;-67
2022/07/13 03:05:07;;;;;;;4.18;1.10;;;;;;;18.00;49.92;100546.78;5074854;28;20090;-67
2022/07/13 03:07:36;;;;;;;3.65;1.10;;;;;;;17.98;50.29;100554.16;5074875;28;20090;-67
2022/07/13 03:10:04;;;;;;;1.98;1.20;;;;;;;18.01;50.16;100548.47;5074858;28;20071;-68
2022/07/13 03:12:34;;;;;;;3.78;1.23;;;;;;;17.97;50.46;100549.75;5075099;28;20048;-67
2022/07/13 03:15:02;;;;;;;2.53;0.98;;;;;;;17.95;50.53;100559.78;5074747;28;20135;-67
2022/07/13 03:17:31;;;;;;;2.95;1.40;;;;;;;17.91;50.61;100555.66;5074985;28;20043;-67
2022/07/13 03:20:00;;;;;;;2.80;1.33;;;;;;;17.90;50.84;100565.59;5074632;28;20047;-67
2022/07/13 03:22:28;;;;;;;3.88;1.30;;;;;;;17.86;51.04;100557.91;5074564;28;20041;-67
2022/07/13 03:24:57;;;;;;;2.50;1.23;;;;;;;17.80;51.33;100559.28;5074733;28;20036;-67
2022/07/13 03:27:25;;;;;;;4.82;1.45;;;;;;;17.79;51.57;100559.41;5074371;28;20054;-67
2022/07/13 03:29:53;;;;;;;4.72;1.40;;;;;;;17.81;51.72;100562.84;5074437;28;20500;-67
2022/07/13 03:32:21;;;;;;;2.95;1.45;;;;;;;17.85;51.71;100554.34;5074229;28;20047;-67
2022/07/13 03:34:49;;;;;;;3.83;1.77;;;;;;;17.89;51.61;100554.94;5074338;28;20047;-67
2022/07/13 03:37:19;;;;;;;3.15;1.23;;;;;;;18.04;51.16;100559.00;5074260;28;20090;-67
2022/07/13 03:39:47;;;;;;;4.70;1.25;;;;;;;18.19;50.90;100554.97;5074277;28;20044;-67
2022/07/13 03:42:15;;;;;;;4.75;1.20;;;;;;;18.41;50.27;100551.25;5073987;28;20055;-67
2022/07/13 03:44:44;;;;;;;4.00;1.48;;;;;;;18.66;49.94;100547.28;5074830;28;20079;-67
2022/07/13 03:47:12;;;;;;;4.20;1.40;;;;;;;19.16;48.87;100542.69;5074020;28;20501;-68
2022/07/13 03:49:40;;;;;;;2.40;1.25;;;;;;;19.92;46.25;100550.13;5074028;28;20043;-67
2022/07/13 03:52:08;;;;;;;3.05;1.35;;;;;;;20.65;44.50;100553.03;5073581;28;20045;-68
2022/07/13 03:54:38;;;;;;;7.63;1.30;;;;;;;21.21;43.34;100544.72;5073939;28;20048;-67
2022/07/13 03:57:06;;;;;;;4.50;1.40;;;;;;;21.48;42.78;100551.13;5073979;28;20044;-71
2022/07/13 03:59:35;;;;;;;2.72;1.40;;;;;;;22.06;41.31;100545.16;5073898;28;20051;-68
2022/07/13 04:02:03;;;;;;;3.60;1.20;;;;;;;22.57;40.34;100544.28;5055666;28;20059;-68
2022/07/13 04:04:31;;;;;;;3.85;1.35;;;;;;;22.60;39.68;100543.97;5073901;28;20048;-67
2022/07/13 04:06:59;;;;;;;3.95;1.48;;;;;;;22.41;40.04;100549.66;5073698;28;20045;-68
2022/07/13 04:09:27;;;;;;;2.72;1.20;;;;;;;22.60;39.10;100543.97;5073624;28;20090;-68
2022/07/13 04:11:57;;;;;;;4.43;1.45;;;;;;;22.81;38.77;100544.41;5073501;28;20055;-68
2022/07/13 04:14:25;;;;;;;2.72;1.60;;;;;;;22.93;38.80;100539.53;5073316;28;20052;-68
2022/07/13 04:16:54;;;;;;;5.75;1.38;;;;;;;22.91;38.51;100529.84;5073723;28;20076;-67
2022/07/13 04:19:22;;;;;;;3.88;1.25;;;;;;;23.52;37.34;100529.44;5073422;28;20051;-68
2022/07/13 04:21:50;;;;;;;2.72;1.40;;;;;;;23.69;37.12;100517.59;5073258;28;20505;-68
2022/07/13 04:24:23;;;;;;;4.97;1.30;;;;;;;23.46;37.02;100521.97;5073197;28;20068;-68
2022/07/13 04:26:51;;;;;;;3.95;1.60;;;;;;;24.37;35.82;100534.53;5073257;28;20044;-68
2022/07/13 04:29:20;;;;;;;3.90;1.55;;;;;;;24.70;34.93;100524.34;5073299;28;20051;-68
2022/07/13 04:31:48;;;;;;;2.22;1.30;;;;;;;24.55;35.25;100529.72;5073418;28;20458;-65
2022/07/13 04:34:17;;;;;;;5.63;1.45;;;;;;;24.57;35.14;100540.44;5073247;28;20144;-67
2022/07/13 04:36:45;;;;;;;5.15;1.55;;;;;;;24.76;34.87;100537.28;5073364;28;20402;-67
2022/07/13 04:39:13;;;;;;;3.45;1.20;;;;;;;24.88;34.38;100533.13;5072966;28;20044;-67
2022/07/13 04:41:41;;;;;;;7.25;1.17;;;;;;;25.13;33.98;100538.50;5072936;28;20119;-67
2022/07/13 04:44:10;;;;;;;4.55;1.40;;;;;;;25.26;34.07;100536.88;5072864;28;20044;-68
2022/07/13 04:46:39;;;;;;;3.83;1.20;;;;;;;25.44;33.92;100531.13;5073182;28;20047;-67
2022/07/13 04:49:08;;;;;;;2.90;1.33;;;;;;;24.58;34.71;100545.72;5073122;28;20041;-67
2022/07/13 04:51:36;;;;;;;3.55;1.38;;;;;;;24.69;34.67;100550.78;5074669;28;20050;-67
2022/07/13 04:54:04;;;;;;;4.18;1.20;;;;;;;24.40;35.00;100545.94;5074794;28;20452;-67
2022/07/13 04:56:33;;;;;;;6.40;1.52;;;;;;;25.22;33.56;100538.28;5072887;28;20079;-67
2022/07/13 04:59:01;;;;;;;4.30;1.40;;;;;;;25.01;34.05;100538.88;5073261;28;20094;-67
2022/07/13 05:01:29;;;;;;;6.47;1.48;;;;;;;25.52;33.55;100544.72;5072535;28;20108;-67
2022/07/13 05:03:59;;;;;;;5.15;1.40;;;;;;;24.48;35.24;100547.78;5072829;28;20056;-67
2022/07/13 05:06:28;;;;;;;2.70;1.23;;;;;;;25.28;34.00;100544.88;5072642;28;20448;-67
2022/07/13 05:08:56;;;;;;;3.58;1.30;;;;;;;25.80;33.19;100539.59;5072858;28;20049;-67
2022/07/13 05:11:24;;;;;;;2.78;1.10;;;;;;;26.74;31.80;100554.53;5054701;28;20416;-67
2022/07/13 05:13:53;;;;;;;2.65;1.20;;;;;;;26.32;31.75;100548.81;5072895;28;20095;-67
2022/07/13 05:16:22;;;;;;;3.30;1.60;;;;;;;26.57;31.91;100544.81;5072652;28;20053;-67
2022/07/13 05:18:50;;;;;;;2.50;1.35;;;;;;;25.88;32.26;100539.50;5073076;28;20074;-67
2022/07/13 05:21:20;;;;;;;2.72;1.23;;;;;;;25.86;32.37;100538.81;5072312;28;20048;-67
2022/07/13 05:23:54;;;;;;;3.63;1.58;;;;;;;26.21;32.18;100547.38;5072979;28;20447;-67
2022/07/13 05:26:22;;;;;;;3.72;1.55;;;;;;;26.63;31.54;100543.19;5072680;28;20037;-68
2022/07/13 05:28:50;;;;;;;3.28;1.27;;;;;;;27.22;31.26;100546.72;5072948;28;20119;-68
2022/07/13 05:31:18;;;;;;;4.55;1.23;;;;;;;27.39;30.63;100537.19;5072362;28;20048;-68
2022/07/13 05:33:46;;;;;;;3.42;1.15;;;;;;;26.61;31.89;100546.09;5072700;28;20055;-67
2022/07/13 05:36:14;;;;;;;4.15;1.27;;;;;;;27.37;30.63;100533.81;5072574;28;20033;-68
2022/07/13 05:38:44;;;;;;;5.43;1.17;;;;;;;28.02;29.45;100547.50;5072738;28;20524;-68
2022/07/13 05:41:12;;;;;;;5.32;1.55;;;;;;;28.39;29.43;100549.94;5072265;28;20382;-68
2022/07/13 05:43:41;;;;;;;6.05;1.38;;;;;;;28.37;29.26;100549.25;5072623;28;20443;-68
2022/07/13 05:46:10;;;;;;;5.45;1.23;;;;;;;27.59;29.67;100547.50;5072384;28;20460;-68
2022/07/13 05:48:38;;;;;;;2.38;1.20;;;;;;;28.33;29.30;100553.47;5054569;28;20052;-68
2022/07/13 05:51:07;;;;;;;4.63;1.52;;;;;;;28.42;29.25;100552.25;5072384;28;20087;-67
2022/07/13 05:53:56;;;;;;;6.43;1.60;;;;;;;28.40;29.26;100546.13;5071372;28;20048;-68
2022/07/13 05:56:24;;;;;;;5.32;1.75;;;;;;;27.74;30.15;100547.47;5072250;28;20409;-68
2022/07/13 05:58:53;;;;;;;5.93;1.63;;;;;;;28.76;28.77;100540.44;5072651;28;20072;-67
2022/07/13 06:01:21;;;;;;;5.88;1.63;;;;;;;29.67;26.93;100542.03;5072272;28;20470;-68
2022/07/13 06:03:49;;;;;;;3.53;1.20;;;;;;;28.83;28.12;100545.94;5072265;28;20101;-68
2022/07/13 06:06:17;;;;;;;6.97;1.10;;;;;;;27.94;29.28;100552.09;5072074;28;20046;-68
2022/07/13 06:08:45;;;;;;;2.30;1.20;;;;;;;27.49;29.89;100552.47;5072267;28;20512;-67
2022/07/13 06:11:14;;;;;;;8.20;1.60;;;;;;;27.38;30.27;100543.72;5072238;28;20048;-77
2022/07/13 06:13:43;;;;;;;4.70;1.45;;;;;;;27.41;30.05;100536.16;5055479;28;20059;-68
2022/07/13 06:16:11;;;;;;;3.95;1.17;;;;;;;26.73;31.32;100552.81;5075941;28;20057;-67
2022/07/13 06:18:39;;;;;;;3.50;1.23;;;;;;;27.77;30.30;100547.91;5075694;28;20508;-68
2022/07/13 06:21:07;;;;;;;1.88;1.00;;;;;;;26.97;31.02;100553.53;5075621;28;20037;-66
2022/07/13 06:23:35;;;;;;;3.25;1.17;;;;;;;26.92;31.22;100545.03;5075355;28;20492;-67
2022/07/13 06:26:04;;;;;;;4.82;1.40;;;;;;;26.21;31.97;100553.69;5075638;28;20040;-66
2022/07/13 06:28:33;;;;;;;3.08;1.25;;;;;;;27.52;30.19;100549.34;5075264;28;20044;-67
2022/07/13 06:31:01;;;;;;;6.15;1.20;;;;;;;26.61;31.71;100557.06;5075821;28;20041;-66
2022/07/13 06:33:29;;;;;;;2.75;1.23;;;;;;;26.39;31.86;100561.59;5075311;28;20036;-66
2022/07/13 06:35:58;;;;;;;9.57;1.60;;;;;;;26.16;32.31;100564.38;5075646;28;20458;-69
2022/07/13 06:38:26;;;;;;;3.63;1.38;;;;;;;26.21;32.44;100564.63;5057064;28;20060;-66
2022/07/13 06:40:54;;;;;;;5.90;1.60;;;;;;;26.16;32.48;100569.81;5075331;28;20055;-68
2022/07/13 06:43:22;;;;;;;4.32;1.60;;;;;;;26.31;32.14;100566.25;5075206;28;20097;-66
2022/07/13 06:45:52;;;;;;;5.30;1.60;;;;;;;27.28;30.78;100551.41;5075372;28;20075;-67
2022/07/13 06:48:20;;;;;;;5.55;1.33;;;;;;;26.08;32.19;100561.69;5074872;28;20049;-67
2022/07/13 06:50:48;;;;;;;3.85;1.33;;;;;;;27.05;31.29;100556.19;5075095;28;20496;-67
2022/07/13 06:53:16;;;;;;;3.25;1.40;;;;;;;27.59;30.67;100561.19;5075049;28;20051;-70
2022/07/13 06:55:45;;;;;;;7.88;1.33;;;;;;;26.62;31.44;100566.09;5075235;28;20047;-68
2022/07/13 06:58:13;;;;;;;5.97;1.25;;;;;;;26.02;32.72;100573.38;5075282;28;20101;-67
2022/07/13 07:00:41;;;;;;;3.45;1.30;;;;;;;26.04;32.85;100563.09;5057225;28;20104;-68
2022/07/13 07:03:11;;;;;;;9.77;1.52;;;;;;;25.55;33.54;100558.00;5074902;28;20037;-67
2022/07/13 07:05:39;;;;;;;9.75;1.75;;;;;;;25.97;33.44;100564.88;5074882;28;20119;-67
2022/07/13 07:08:07;;;;;;;6.97;1.50;;;;;;;25.55;33.83;100574.38;5075161;28;20452;-67
2022/07/13 07:10:35;;;;;;;7.97;1.40;;;;;;;25.55;34.07;100571.66;5074832;28;20044;-67
2022/07/13 07:13:07;;;;;;;2.40;1.17;;;;;;;25.19;34.51;100567.78;5075081;28;20052;-67
2022/07/13 07:15:35;;;;;;;4.32;1.17;;;;;;;24.15;36.05;100560.63;5074795;28;20497;-68
2022/07/13 07:18:04;;;;;;;5.03;1.17;;;;;;;24.27;36.31;100564.69;5074893;28;20119;-67
2022/07/13 07:20:39;;;;;;;5.18;1.40;;;;;;;24.30;36.28;100563.47;5074600;28;20401;-67
2022/07/13 07:23:07;;;;;;;6.43;1.40;;;;;;;24.83;35.18;100566.41;5074558;28;20072;-67
2022/07/13 07:25:36;;;;;;;3.28;1.15;;;;;;;24.40;35.87;100567.75;5073248;28;20134;-67
2022/07/13 07:28:04;;;;;;;5.35;1.35;;;;;;;24.82;36.24;100555.69;5056490;28;20049;-68
2022/07/13 07:30:33;;;;;;;5.00;1.55;;;;;;;24.64;36.27;100552.34;5074342;28;20097;-67
2022/07/13 07:33:01;;;;;;;4.13;1.20;;;;;;;24.43;36.24;100545.59;5056745;28;20374;-67
2022/07/13 07:35:29;;;;;;;3.33;1.15;;;;;;;24.21;37.31;100549.00;5074281;28;20055;-67
2022/07/13 07:37:59;;;;;;;4.00;1.30;;;;;;;24.18;37.24;100547.50;5074421;28;20059;-67
2022/07/13 07:40:27;;;;;;;4.05;1.20;;;;;;;24.40;37.10;100545.94;5073964;28;20119;-67
2022/07/13 07:42:55;;;;;;;5.03;1.23;;;;;;;24.28;37.14;100542.69;5073962;28;20484;-67
2022/07/13 07:45:24;;;;;;;3.88;1.30;;;;;;;24.48;37.21;100537.72;5056157;28;20059;-67
2022/07/13 07:47:53;;;;;;;3.45;1.27;;;;;;;24.47;36.91;100536.03;5074115;28;20043;-67
2022/07/13 07:50:21;;;;;;;4.93;1.40;;;;;;;24.68;37.09;100534.59;5074041;28;20041;-68
2022/07/13 07:52:49;;;;;;;6.78;1.60;;;;;;;24.82;36.94;100531.97;5074053;28;20048;-67
2022/07/13 07:55:23;;;;;;;3.83;1.25;;;;;;;24.70;37.01;100546.16;5073680;28;20062;-68
2022/07/13 07:57:52;;;;;;;4.38;1.48;;;;;;;24.66;37.20;100537.50;5073932;28;20048;-67
2022/07/13 08:00:21;;;;;;;3.83;1.23;;;;;;;24.76;37.03;100545.47;5073645;28;20044;-71
2022/07/13 08:02:49;;;;;;;6.60;1.50;;;;;;;24.88;37.08;100535.88;5073902;28;20083;-67
2022/07/13 08:05:18;;;;;;;6.53;1.42;;;;;;;24.57;37.19;100537.72;5056054;28;20156;-67
2022/07/13 08:07:46;;;;;;;3.42;1.45;;;;;;;24.62;37.05;100538.91;5073535;28;20405;-67
2022/07/13 08:10:16;;;;;;;6.78;1.20;;;;;;;24.64;36.93;100542.28;5073696;28;20474;-67
2022/07/13 08:13:04;;;;;;;3.50;1.30;;;;;;;24.65;36.67;100543.13;5073794;28;20569;-68
2022/07/13 08:15:33;;;;;;;6.70;1.52;;;;;;;24.72;37.09;100530.50;5073319;28;20071;-67
2022/07/13 08:18:01;;;;;;;7.00;1.55;;;;;;;24.75;37.23;100516.50;5073415;28;20531;-67
2022/07/13 08:20:31;;;;;;;4.43;1.33;;;;;;;24.86;36.90;100516.09;5073180;28;20055;-67
2022/07/13 08:22:59;;;;;;;3.15;1.40;;;;;;;25.03;36.38;100509.56;5073478;28;20098;-67
2022/07/13 08:25:28;;;;;;;8.60;1.83;;;;;;;25.24;36.60;100521.72;5072016;28;20143;-67
2022/07/13 08:27:58;;;;;;;4.82;1.23;;;;;;;25.26;36.47;100523.22;5073534;28;20071;-67
2022/07/13 08:30:28;;;;;;;5.68;1.20;;;;;;;25.18;36.24;100522.41;5073233;28;20040;-67
2022/07/13 08:32:56;;;;;;;3.13;1.20;;;;;;;25.43;36.14;100534.03;5073238;28;20050;-67
2022/07/13 08:38:35;;;;;;;6.68;1.52;;;;;;;25.46;35.93;100531.78;5073005;28;20067;-67
2022/07/13 08:41:04;;;;;;;;;;;;;;;25.33;36.09;100510.56;5076532;28;20128;-67
2022/07/13 08:43:33;;;;;;;6.38;1.55;;;;;;;25.62;36.02;100517.16;5075678;28;19920;-67
2022/07/13 08:46:08;;;;;;;4.15;1.17;;;;;;;25.38;36.00;100524.53;5073543;28;20503;-67
2022/07/13 08:48:39;;;;;;;1.92;1.20;;;;;;;25.39;36.33;100520.75;5072966;28;20048;-67
2022/07/13 08:51:07;;;;;;;5.63;1.42;;;;;;;25.64;35.98;100505.00;5073209;28;20041;-67
2022/07/13 08:53:36;;;;;;;4.57;1.55;;;;;;;25.44;35.94;100505.69;5072870;28;20049;-67
2022/07/13 08:56:04;;;;;;;7.50;1.40;;;;;;;25.63;36.09;100505.19;5072962;28;20123;-67
2022/07/13 08:58:36;;;;;;;6.97;1.60;;;;;;;25.89;35.63;100511.16;5054896;28;20048;-67
2022/07/13 09:01:09;;;;;;;3.70;1.33;;;;;;;25.77;35.77;100500.84;5073372;28;20040;-67
2022/07/13 09:03:38;;;;;;;5.95;1.52;;;;;;;25.79;35.38;100498.78;5072982;28;20043;-67
2022/07/13 09:06:06;;;;;;;9.00;1.90;;;;;;;26.09;35.41;100507.88;5054652;28;20052;-68
2022/07/13 09:08:42;;;;;;;4.53;1.50;;;;;;;25.82;35.42;100495.69;5054851;28;20123;-67
2022/07/13 09:11:11;;;;;;;7.00;1.50;;;;;;;26.04;35.39;100491.19;5073025;28;20136;-67
2022/07/13 09:13:40;;;;;;;4.07;1.55;;;;;;;25.96;35.53;100490.25;5072661;28;20048;-67
2022/07/13 09:16:21;;;;;;;4.88;2.10;;;;;;;26.25;34.98;100492.16;5072569;28;20106;-67
2022/07/13 09:18:51;;;;;;;4.43;1.48;;;;;;;26.19;34.49;100484.69;5072641;28;20041;-67
2022/07/13 09:21:24;;;;;;;5.00;1.38;;;;;;;26.19;34.92;100489.31;5054995;28;20056;-67
2022/07/13 09:23:56;;;;;;;4.50;1.30;;;;;;;26.28;33.78;100481.88;5073053;28;20036;-67
2022/07/13 09:26:24;;;;;;;1.67;1.00;;;;;;;26.27;34.55;100482.91;5072730;28;20047;-67
2022/07/13 09:28:53;;;;;;;4.50;1.48;;;;;;;26.38;34.79;100479.72;5072709;28;20098;-69
2022/07/13 09:31:23;;;;;;;3.38;1.23;;;;;;;26.10;34.53;100480.34;5072815;28;20051;-67
2022/07/13 09:33:55;;;;;;;3.85;1.30;;;;;;;26.29;34.45;100484.41;5072988;28;20044;-67
2022/07/13 09:36:25;;;;;;;2.83;0.97;;;;;;;26.27;33.55;100497.44;5072824;28;20044;-67
2022/07/13 09:39:08;;;;;;;8.43;1.73;;;;;;;26.22;33.63;100488.94;5072572;28;20045;-67
2022/07/13 09:41:36;;;;;;;4.45;1.27;;;;;;;26.30;33.73;100485.25;5054531;28;20055;-67
2022/07/13 09:46:58;;;;;;;3.05;1.30;;;;;;;26.52;33.29;100487.06;5072645;28;20124;-67
2022/07/13 09:49:32;;;;;;;8.55;1.80;;;;;;;26.86;33.65;100480.13;5074750;28;20041;-70
2022/07/13 09:52:01;;;;;;;7.22;1.75;;;;;;;26.63;33.57;100483.00;5076155;28;20036;-67
2022/07/13 09:54:31;;;;;;;4.68;1.40;;;;;;;26.58;33.12;100472.63;5076017;28;20070;-67
2022/07/13 09:57:01;;;;;;;3.33;1.50;;;;;;;26.72;33.35;100479.97;5076464;28;20048;-67
2022/07/13 09:59:30;;;;;;;7.32;1.50;;;;;;;26.77;33.10;100493.94;5058067;28;20060;-68
2022/07/13 10:01:59;;;;;;;3.75;1.40;;;;;;;26.30;33.59;100490.72;5076148;28;20040;-67
2022/07/13 10:04:28;;;;;;;4.57;1.63;;;;;;;26.50;34.01;100489.16;5075728;28;20037;-70
2022/07/13 10:07:16;;;;;;;5.07;1.60;;;;;;;26.39;34.27;100495.09;5058252;28;20041;-67
2022/07/13 10:09:45;;;;;;;5.95;1.83;;;;;;;26.63;33.76;100496.66;5075900;28;20044;-67
2022/07/13 10:12:14;;;;;;;3.80;1.30;;;;;;;26.78;33.38;100495.63;5058078;28;20087;-67
2022/07/13 10:14:42;;;;;;;4.30;1.50;;;;;;;26.63;32.75;100486.56;5075436;28;20071;-67
2022/07/13 10:17:20;;;;;;;5.30;1.95;;;;;;;26.42;33.16;100486.50;5075957;28;20043;-67
2022/07/13 10:19:52;;;;;;;1.60;0.90;;;;;;;26.69;32.46;100479.50;5075651;28;20090;-67
2022/07/13 10:22:22;;;;;;;3.85;1.30;;;;;;;26.58;32.42;100489.06;5057953;28;20071;-67
2022/07/13 10:24:52;;;;;;;2.92;1.40;;;;;;;26.60;33.08;100486.97;5075373;28;20040;-67
2022/07/13 10:27:22;;;;;;;3.83;1.35;;;;;;;26.81;32.57;100481.53;5075543;28;20055;-66
2022/07/13 10:29:53;;;;;;;4.38;1.30;;;;;;;27.19;32.24;100486.84;5075632;28;20535;-68
2022/07/13 10:32:23;;;;;;;3.97;1.50;;;;;;;26.86;31.56;100480.97;5075747;28;20047;-67
2022/07/13 10:34:53;;;;;;;3.40;0.98;;;;;;;27.07;30.18;100450.09;5075369;28;20462;-67
2022/07/13 10:37:23;;;;;;;6.15;1.17;;;;;;;27.16;30.58;100470.81;5075653;28;20041;-66
2022/07/13 10:40:11;;;;;;;3.72;1.13;;;;;;;27.18;30.47;100467.88;5075168;28;20047;-67
2022/07/13 10:43:11;;;;;;;9.68;1.70;;;;;;;26.91;31.31;100469.44;5075257;28;20048;-67
2022/07/13 10:45:45;;;;;;;2.17;1.40;;;;;;;26.95;31.93;100473.50;5075122;28;20044;-67
2022/07/13 10:48:48;;;;;;;6.07;1.33;;;;;;;27.43;30.80;100460.13;5057228;28;20469;-67
2022/07/13 10:51:18;;;;;;;3.28;1.27;;;;;;;27.28;31.06;100466.50;5057637;28;20053;-67
2022/07/13 10:54:12;;;;;;;2.88;1.15;;;;;;;27.17;31.37;100480.72;5075205;28;20036;-67
2022/07/13 10:57:12;;;;;;;3.05;1.30;;;;;;;27.27;31.05;100456.59;5056800;28;20056;-67
2022/07/13 10:59:49;;;;;;;4.53;1.15;;;;;;;27.40;30.83;100472.31;5074929;28;20045;-67
2022/07/13 11:02:44;;;;;;;3.00;1.30;;;;;;;27.20;30.42;100461.16;5075179;28;20048;-67
2022/07/13 11:05:15;;;;;;;11.75;1.30;;;;;;;27.52;30.35;100442.50;5075053;28;20044;-67
2022/07/13 11:07:45;;;;;;;2.83;1.17;;;;;;;27.44;29.92;100442.66;5074900;28;20044;-67
2022/07/13 11:10:19;;;;;;;6.85;1.45;;;;;;;27.61;29.74;100436.69;5074895;28;20353;-67
2022/07/13 11:12:58;;;;;;;2.38;1.10;;;;;;;27.89;28.63;100436.72;5056671;28;20044;-67
2022/07/13 11:15:42;;;;;;;3.10;1.00;;;;;;;27.95;28.78;100441.38;5056584;28;20102;-67
2022/07/13 11:18:28;;;;;;;5.78;1.30;;;;;;;27.64;28.88;100449.97;5074772;28;20045;-67
2022/07/13 11:20:59;;;;;;;3.00;1.08;;;;;;;27.56;28.64;100450.13;5074513;28;20045;-67
2022/07/13 11:26:32;;;;;;;3.22;1.05;;;;;;;27.58;28.89;100447.19;5074717;28;20043;-68
2022/07/13 11:29:11;;;;;;;9.67;1.60;;;;;;;27.76;28.66;100443.97;5074644;28;20123;-67
2022/07/13 11:31:39;;;;;;;6.40;1.40;;;;;;;27.59;28.47;100437.91;5056377;28;20297;-68
2022/07/13 11:34:08;;;;;;;2.50;1.00;;;;;;;28.16;27.33;100423.16;5074367;28;20041;-68
2022/07/13 11:36:37;;;;;;;2.92;1.02;;;;;;;28.19;27.33;100426.34;5074237;28;20120;-68
2022/07/13 11:39:22;;;;;;;6.95;1.30;;;;;;;27.92;27.91;100427.25;5074581;28;20434;-67
2022/07/13 11:41:51;;;;;;;3.88;1.00;;;;;;;27.77;27.57;100424.59;5073998;28;20052;-67
2022/07/13 11:44:22;;;;;;;2.72;1.30;;;;;;;28.07;27.36;100435.31;5074003;28;20090;-68
2022/07/13 11:46:51;;;;;;;3.35;1.20;;;;;;;28.09;27.65;100422.28;5073874;28;20449;-67